createdAt,value
2023-03-29T00:00:51.169Z,11.33
2023-03-29T00:02:32.851Z,15.82
2023-03-29T00:04:06.591Z,12.75
2023-03-29T00:05:41.381Z,14.27
2023-03-29T00:07:14.522Z,14.82
2023-03-29T00:08:46.569Z,12.98
2023-03-29T00:10:19.786Z,9.80
2023-03-29T00:11:52.905Z,11.00
2023-03-29T00:13:26.330Z,13.03
2023-03-29T00:14:59.449Z,10.48
2023-03-29T00:16:32.538Z,9.85
2023-03-29T00:18:07.246Z,11.55
2023-03-29T00:19:40.381Z,9.52
2023-03-29T00:21:13.475Z,11.77
2023-03-29T00:22:47.611Z,11.07
2023-03-29T00:24:21.151Z,13.27
2023-03-29T00:25:55.361Z,12.60
2023-03-29T00:27:29.236Z,10.35
2023-03-29T00:29:02.315Z,12.82
2023-03-29T00:30:35.580Z,9.40
2023-03-29T00:32:08.821Z,9.90
2023-03-29T00:33:42.532Z,7.35
2023-03-29T00:35:16.573Z,10.10
2023-03-29T00:36:50.970Z,13.07
2023-03-29T00:38:24.111Z,8.17
2023-03-29T00:39:57.772Z,11.87
2023-03-29T00:41:30.935Z,10.00
2023-03-29T00:43:04.010Z,9.15
2023-03-29T00:45:00.755Z,8.98
2023-03-29T00:46:34.934Z,14.25
2023-03-29T00:48:11.223Z,14.10
2023-03-29T00:49:45.589Z,11.60
2023-03-29T00:51:20.557Z,8.73
2023-03-29T00:53:00.884Z,9.82
2023-03-29T00:54:34.539Z,10.77
2023-03-29T00:56:11.910Z,8.30
2023-03-29T00:57:49.262Z,9.88
2023-03-29T00:59:25.715Z,10.70
2023-03-29T01:01:02.710Z,10.48
2023-03-29T01:02:40.008Z,11.43
2023-03-29T01:04:19.360Z,8.52
2023-03-29T01:06:00.103Z,10.25
2023-03-29T01:07:38.101Z,10.43
2023-03-29T01:09:15.242Z,10.45
2023-03-29T01:10:52.779Z,11.23
2023-03-29T01:12:30.433Z,12.52
2023-03-29T01:14:05.878Z,9.70
2023-03-29T01:15:43.111Z,11.70
2023-03-29T01:17:16.223Z,14.00
2023-03-29T01:18:49.348Z,7.80
2023-03-29T01:20:27.969Z,10.93
2023-03-29T01:22:13.553Z,9.70
2023-03-29T01:24:06.956Z,7.17
2023-03-29T01:25:48.982Z,8.95
2023-03-29T01:27:36.242Z,8.73
2023-03-29T01:29:12.991Z,12.63
2023-03-29T01:30:49.336Z,9.20
2023-03-29T01:32:27.211Z,8.70
2023-03-29T01:34:06.909Z,12.82
2023-03-29T01:35:45.660Z,9.32
2023-03-29T01:37:24.820Z,9.90
2023-03-29T01:38:59.192Z,8.82
2023-03-29T01:40:34.243Z,6.78
2023-03-29T01:42:22.648Z,9.55
2023-03-29T01:44:03.159Z,9.77
2023-03-29T01:45:39.392Z,7.25
2023-03-29T01:47:18.720Z,9.75
2023-03-29T01:48:55.937Z,9.02
2023-03-29T01:50:39.086Z,9.88
2023-03-29T01:52:16.994Z,11.70
2023-03-29T01:53:57.548Z,10.77
2023-03-29T01:55:35.982Z,12.23
2023-03-29T01:57:11.862Z,9.25
2023-03-29T01:58:48.386Z,10.32
2023-03-29T02:00:27.612Z,10.82
2023-03-29T02:02:03.910Z,11.82
2023-03-29T02:03:42.513Z,9.48
2023-03-29T02:05:17.637Z,10.45
2023-03-29T02:06:54.175Z,12.38
2023-03-29T02:08:28.544Z,8.15
2023-03-29T02:10:04.716Z,8.65
2023-03-29T02:11:37.996Z,9.35
2023-03-29T02:13:11.395Z,9.13
2023-03-29T02:14:43.532Z,8.23
2023-03-29T02:16:18.326Z,9.10
2023-03-29T02:17:51.933Z,11.75
2023-03-29T02:19:27.982Z,10.30
2023-03-29T02:21:01.915Z,10.55
2023-03-29T02:22:42.489Z,8.82
2023-03-29T02:24:18.640Z,9.85
2023-03-29T02:25:53.600Z,7.63
2023-03-29T02:27:29.177Z,11.70
2023-03-29T02:29:04.160Z,10.57
2023-03-29T02:30:44.677Z,9.17
2023-03-29T02:32:22.875Z,7.73
2023-03-29T02:34:00.365Z,9.52
2023-03-29T02:35:36.511Z,8.55
2023-03-29T02:37:15.693Z,8.63
2023-03-29T02:38:48.891Z,10.02
2023-03-29T02:40:23.512Z,9.95
2023-03-29T02:41:57.282Z,11.23
2023-03-29T02:43:31.978Z,11.18
2023-03-29T02:45:06.200Z,11.35
2023-03-29T02:46:39.723Z,9.73
2023-03-29T02:48:18.315Z,10.32
2023-03-29T02:49:51.997Z,11.93
2023-03-29T02:51:27.911Z,9.18
2023-03-29T02:53:04.648Z,10.07
2023-03-29T02:54:43.441Z,8.80
2023-03-29T02:56:16.699Z,11.02
2023-03-29T02:57:49.794Z,10.87
2023-03-29T02:59:24.249Z,14.27
2023-03-29T03:00:59.658Z,13.68
2023-03-29T03:02:33.529Z,12.32
2023-03-29T03:04:08.084Z,10.45
2023-03-29T03:05:41.202Z,8.65
2023-03-29T03:07:14.323Z,10.98
2023-03-29T03:08:47.436Z,10.57
2023-03-29T03:10:20.684Z,8.93
2023-03-29T03:11:53.799Z,11.03
2023-03-29T03:13:27.049Z,16.98
2023-03-29T03:14:59.222Z,9.70
2023-03-29T03:16:32.496Z,11.88
2023-03-29T03:18:04.983Z,11.85
2023-03-29T03:19:40.648Z,9.30
2023-03-29T03:21:13.819Z,11.83
2023-03-29T03:22:48.928Z,9.80
2023-03-29T03:24:22.160Z,11.35
2023-03-29T03:25:55.789Z,11.87
2023-03-29T03:27:29.068Z,9.07
2023-03-29T03:29:02.389Z,10.13
2023-03-29T03:30:58.947Z,9.02
2023-03-29T03:33:10.209Z,8.48
2023-03-29T03:35:06.012Z,10.55
2023-03-29T03:36:39.225Z,12.40
2023-03-29T03:38:12.292Z,11.35
2023-03-29T03:39:46.169Z,11.68
2023-03-29T03:41:19.747Z,10.07
2023-03-29T03:42:52.910Z,11.60
2023-03-29T03:44:25.249Z,10.47
2023-03-29T03:46:15.260Z,10.45
2023-03-29T03:47:49.385Z,12.70
2023-03-29T03:49:32.320Z,9.80
2023-03-29T03:51:07.304Z,10.65
2023-03-29T03:52:41.633Z,11.90
2023-03-29T03:54:15.714Z,10.40
2023-03-29T03:56:09.717Z,9.30
2023-03-29T03:57:58.175Z,11.27
2023-03-29T03:59:31.648Z,10.97
2023-03-29T04:01:15.133Z,12.07
2023-03-29T04:02:57.522Z,12.20
2023-03-29T04:04:31.433Z,10.83
2023-03-29T04:06:19.409Z,13.07
2023-03-29T04:08:22.492Z,13.45
2023-03-29T04:10:15.781Z,11.23
2023-03-29T04:12:05.706Z,9.73
2023-03-29T04:13:39.057Z,10.43
2023-03-29T04:15:31.447Z,10.10
2023-03-29T04:17:12.205Z,11.30
2023-03-29T04:18:56.038Z,13.47
2023-03-29T04:20:29.715Z,11.65
2023-03-29T04:22:05.465Z,11.50
2023-03-29T04:23:38.682Z,10.23
2023-03-29T04:25:12.260Z,13.57
2023-03-29T04:26:48.472Z,12.37
2023-03-29T04:28:27.678Z,10.98
2023-03-29T04:30:21.033Z,10.63
2023-03-29T04:32:09.923Z,13.98
2023-03-29T04:33:51.584Z,11.48
2023-03-29T04:35:24.995Z,11.02
2023-03-29T04:36:58.867Z,11.43
2023-03-29T04:38:36.121Z,13.15
2023-03-29T04:40:14.225Z,10.60
2023-03-29T04:42:05.682Z,13.13
2023-03-29T04:43:41.401Z,11.37
2023-03-29T04:45:27.279Z,14.07
2023-03-29T04:47:30.124Z,14.53
2023-03-29T04:49:08.554Z,16.10
2023-03-29T04:50:47.472Z,12.98
2023-03-29T04:52:24.513Z,11.60
2023-03-29T04:53:59.786Z,13.40
2023-03-29T04:55:33.397Z,11.63
2023-03-29T04:57:08.731Z,11.83
2023-03-29T04:58:42.233Z,13.07
2023-03-29T05:00:16.942Z,11.00
2023-03-29T05:02:16.290Z,13.93
2023-03-29T05:03:53.366Z,13.70
2023-03-29T05:05:32.905Z,12.97
2023-03-29T05:07:08.241Z,14.10
2023-03-29T05:08:41.871Z,10.43
2023-03-29T05:10:32.667Z,15.17
2023-03-29T05:12:06.508Z,12.80
2023-03-29T05:13:51.986Z,13.05
2023-03-29T05:15:25.410Z,16.10
2023-03-29T05:16:58.716Z,13.10
2023-03-29T05:18:32.481Z,13.03
2023-03-29T05:20:09.474Z,13.50
2023-03-29T05:21:45.101Z,14.63
2023-03-29T05:23:21.328Z,13.77
2023-03-29T05:25:13.641Z,13.47
2023-03-29T05:26:51.765Z,12.03
2023-03-29T05:28:25.081Z,12.73
2023-03-29T05:29:58.196Z,10.37
2023-03-29T05:31:37.811Z,9.63
2023-03-29T05:33:11.452Z,11.27
2023-03-29T05:34:45.108Z,10.43
2023-03-29T05:36:20.148Z,9.30
2023-03-29T05:37:56.282Z,12.87
2023-03-29T05:39:29.468Z,10.27
2023-03-29T05:41:03.330Z,10.53
2023-03-29T05:43:13.285Z,11.63
2023-03-29T05:44:46.777Z,10.53
2023-03-29T05:46:25.320Z,10.73
2023-03-29T05:48:00.580Z,10.47
2023-03-29T05:49:33.804Z,9.97
2023-03-29T05:51:14.994Z,12.43
2023-03-29T05:52:48.463Z,10.13
2023-03-29T05:54:21.744Z,10.93
2023-03-29T05:55:55.173Z,11.00
2023-03-29T05:57:30.628Z,9.60
2023-03-29T05:59:05.503Z,11.40
2023-03-29T06:00:39.326Z,9.47
2023-03-29T06:02:29.577Z,10.73
2023-03-29T06:04:03.825Z,11.00
2023-03-29T06:05:50.668Z,10.07
2023-03-29T06:07:24.475Z,11.20
2023-03-29T06:09:26.931Z,10.57
2023-03-29T06:11:09.237Z,10.97
2023-03-29T06:13:17.452Z,11.90
2023-03-29T06:14:52.207Z,11.20
2023-03-29T06:16:32.840Z,9.03
2023-03-29T06:18:06.277Z,7.87
2023-03-29T06:19:41.226Z,9.80
2023-03-29T06:21:14.452Z,10.60
2023-03-29T06:22:48.347Z,12.60
2023-03-29T06:24:21.535Z,9.77
2023-03-29T06:26:01.088Z,14.57
2023-03-29T06:27:34.602Z,11.77
2023-03-29T06:29:08.477Z,11.63
2023-03-29T06:30:43.719Z,12.77
2023-03-29T06:32:17.135Z,8.67
2023-03-29T06:33:57.682Z,10.17
2023-03-29T06:35:59.784Z,8.90
2023-03-29T06:37:34.937Z,8.53
2023-03-29T06:39:22.759Z,7.70
2023-03-29T06:41:21.745Z,8.90
2023-03-29T06:43:15.499Z,7.23
2023-03-29T06:45:12.364Z,8.13
2023-03-29T06:46:47.115Z,11.83
2023-03-29T06:48:21.305Z,10.00
2023-03-29T06:49:54.510Z,11.50
2023-03-29T06:51:38.251Z,9.90
2023-03-29T06:53:11.586Z,10.70
2023-03-29T06:54:46.479Z,9.77
2023-03-29T06:56:19.531Z,8.13
2023-03-29T06:58:02.270Z,10.10
2023-03-29T06:59:35.942Z,11.10
2023-03-29T07:01:45.088Z,10.60
2023-03-29T07:03:35.300Z,13.17
2023-03-29T07:05:11.910Z,9.00
2023-03-29T07:07:01.196Z,10.77
2023-03-29T07:08:37.386Z,8.80
2023-03-29T07:10:15.070Z,11.83
2023-03-29T07:12:24.203Z,11.03
2023-03-29T07:13:59.243Z,14.07
2023-03-29T07:15:34.066Z,9.50
2023-03-29T07:17:18.544Z,7.77
2023-03-29T07:18:53.631Z,9.03
2023-03-29T07:20:43.118Z,8.70
2023-03-29T07:22:16.412Z,6.60
2023-03-29T07:23:55.045Z,9.07
2023-03-29T07:25:30.003Z,7.80
2023-03-29T07:27:04.903Z,6.90
2023-03-29T07:28:40.367Z,9.20
2023-03-29T07:30:16.523Z,8.27
2023-03-29T07:31:50.517Z,8.60
2023-03-29T07:33:52.568Z,7.63
2023-03-29T07:35:28.993Z,9.93
2023-03-29T07:37:02.072Z,9.10
2023-03-29T07:38:36.762Z,11.10
2023-03-29T07:40:19.914Z,10.57
2023-03-29T07:42:04.978Z,8.53
2023-03-29T07:43:38.276Z,8.47
2023-03-29T07:45:13.636Z,9.83
2023-03-29T07:47:00.046Z,7.73
2023-03-29T07:48:33.752Z,9.20
2023-03-29T07:50:11.743Z,8.17
2023-03-29T07:51:46.978Z,8.47
2023-03-29T07:53:21.066Z,9.10
2023-03-29T07:54:54.941Z,9.20
2023-03-29T07:56:47.691Z,9.17
2023-03-29T07:58:43.593Z,6.70
2023-03-29T08:00:20.075Z,17.63
2023-03-29T08:02:10.466Z,7.97
2023-03-29T08:03:45.973Z,8.57
2023-03-29T08:05:29.188Z,8.60
2023-03-29T08:07:13.645Z,6.83
2023-03-29T08:09:22.387Z,9.40
2023-03-29T08:10:56.333Z,8.03
2023-03-29T08:12:53.396Z,9.37
2023-03-29T08:14:33.130Z,7.77
2023-03-29T08:16:19.570Z,8.23
2023-03-29T08:17:59.283Z,8.33
2023-03-29T08:19:32.778Z,9.57
2023-03-29T08:21:10.235Z,12.87
2023-03-29T08:22:45.288Z,11.07
2023-03-29T08:24:27.557Z,9.93
2023-03-29T08:26:08.678Z,11.57
2023-03-29T08:27:42.497Z,9.93
2023-03-29T08:29:17.484Z,9.37
2023-03-29T08:30:50.950Z,10.93
2023-03-29T08:32:24.090Z,9.63
2023-03-29T08:33:57.287Z,9.60
2023-03-29T08:35:55.224Z,7.77
2023-03-29T08:37:33.208Z,8.70
2023-03-29T08:39:08.079Z,9.53
2023-03-29T08:40:42.704Z,9.43
2023-03-29T08:42:36.788Z,9.17
2023-03-29T08:44:21.553Z,9.27
2023-03-29T08:46:11.932Z,7.93
2023-03-29T08:47:52.701Z,8.90
2023-03-29T08:49:27.947Z,8.83
2023-03-29T08:51:06.161Z,7.67
2023-03-29T08:52:44.413Z,7.67
2023-03-29T08:54:59.668Z,9.10
2023-03-29T08:56:53.244Z,7.07
2023-03-29T08:58:35.076Z,6.77
2023-03-29T09:00:15.401Z,6.00
2023-03-29T09:01:53.200Z,6.93
2023-03-29T09:03:29.992Z,7.67
2023-03-29T09:05:15.994Z,6.23
2023-03-29T09:06:54.248Z,5.97
2023-03-29T09:08:30.548Z,5.23
2023-03-29T09:10:05.573Z,5.20
2023-03-29T09:12:01.676Z,5.90
2023-03-29T09:13:40.747Z,6.07
2023-03-29T09:15:19.487Z,4.73
2023-03-29T09:17:11.642Z,5.43
2023-03-29T09:18:53.151Z,4.43
2023-03-29T09:20:38.285Z,5.50
2023-03-29T09:22:22.473Z,7.70
2023-03-29T09:24:10.185Z,6.67
2023-03-29T09:25:58.726Z,8.17
2023-03-29T09:27:49.502Z,6.50
2023-03-29T09:29:58.232Z,7.83
2023-03-29T09:31:52.556Z,7.70
2023-03-29T09:33:28.473Z,8.03
2023-03-29T09:35:18.864Z,8.17
2023-03-29T09:36:55.934Z,5.23
2023-03-29T09:38:32.335Z,5.17
2023-03-29T09:40:13.072Z,5.23
2023-03-29T09:42:16.188Z,5.47
2023-03-29T09:43:51.763Z,6.37
2023-03-29T09:45:29.454Z,5.90
2023-03-29T09:47:08.562Z,5.90
2023-03-29T09:48:46.178Z,4.63
2023-03-29T09:50:31.002Z,7.43
2023-03-29T09:52:13.581Z,4.63
2023-03-29T09:53:50.798Z,6.37
2023-03-29T09:55:50.331Z,5.17
2023-03-29T09:57:47.949Z,7.03
2023-03-29T09:59:22.696Z,4.43
2023-03-29T10:00:59.822Z,5.17
2023-03-29T10:02:33.529Z,4.67
2023-03-29T10:04:08.866Z,4.23
2023-03-29T10:05:48.059Z,4.27
2023-03-29T10:07:24.283Z,4.53
2023-03-29T10:09:05.973Z,3.90
2023-03-29T10:10:44.814Z,3.90
2023-03-29T10:12:18.721Z,5.00
2023-03-29T10:13:57.424Z,4.50
2023-03-29T10:15:31.553Z,4.27
2023-03-29T10:17:07.548Z,3.93
2023-03-29T10:18:42.665Z,4.87
2023-03-29T10:20:18.488Z,4.80
2023-03-29T10:21:52.815Z,5.83
2023-03-29T10:23:30.457Z,6.03
2023-03-29T10:25:03.785Z,5.57
2023-03-29T10:26:39.640Z,5.93
2023-03-29T10:28:16.141Z,5.83
2023-03-29T10:29:51.986Z,5.47
2023-03-29T10:31:26.167Z,5.33
2023-03-29T10:33:00.722Z,7.80
2023-03-29T10:34:35.109Z,6.83
2023-03-29T10:36:09.688Z,6.13
2023-03-29T10:37:44.291Z,7.93
2023-03-29T10:39:17.505Z,6.70
2023-03-29T10:40:53.557Z,6.83
2023-03-29T10:42:27.345Z,7.93
2023-03-29T10:44:01.580Z,6.80
2023-03-29T10:45:39.068Z,6.77
2023-03-29T10:47:17.602Z,9.07
2023-03-29T10:48:53.021Z,7.43
2023-03-29T10:50:27.081Z,8.13
2023-03-29T10:52:00.177Z,7.03
2023-03-29T10:53:35.260Z,7.30
2023-03-29T10:55:14.794Z,7.20
2023-03-29T10:56:52.500Z,8.53
2023-03-29T10:58:36.274Z,8.63
2023-03-29T11:00:17.621Z,8.07
2023-03-29T11:02:19.532Z,8.37
2023-03-29T11:04:17.418Z,8.87
2023-03-29T11:05:57.346Z,7.07
2023-03-29T11:07:33.670Z,9.27
2023-03-29T11:09:15.491Z,8.43
2023-03-29T11:10:56.808Z,8.90
2023-03-29T11:12:38.870Z,10.07
2023-03-29T11:14:21.982Z,8.73
2023-03-29T11:16:06.824Z,9.57
2023-03-29T11:17:55.562Z,9.83
2023-03-29T11:19:45.657Z,8.90
2023-03-29T11:21:28.091Z,9.67
2023-03-29T11:23:09.098Z,9.43
2023-03-29T11:24:54.649Z,9.13
2023-03-29T11:26:32.384Z,10.90
2023-03-29T11:28:13.896Z,8.33
2023-03-29T11:30:00.578Z,9.33
2023-03-29T11:31:41.755Z,11.83
2023-03-29T11:33:34.097Z,10.13
2023-03-29T11:35:28.339Z,10.83
2023-03-29T11:37:09.435Z,10.33
2023-03-29T11:38:49.672Z,10.53
2023-03-29T11:40:36.159Z,12.27
2023-03-29T11:42:14.704Z,12.43
2023-03-29T11:43:50.625Z,11.37
2023-03-29T11:45:30.519Z,11.70
2023-03-29T11:47:10.024Z,15.73
2023-03-29T11:48:51.220Z,14.40
2023-03-29T11:50:29.128Z,14.70
2023-03-29T11:52:08.531Z,13.10
2023-03-29T11:53:51.792Z,14.63
2023-03-29T11:55:27.195Z,12.43
2023-03-29T11:57:05.261Z,12.67
2023-03-29T11:58:41.146Z,14.47
2023-03-29T12:00:18.211Z,11.53
2023-03-29T12:01:56.246Z,13.03
2023-03-29T12:03:39.318Z,14.67
2023-03-29T12:05:21.567Z,14.13
2023-03-29T12:07:02.442Z,13.43
2023-03-29T12:08:39.289Z,15.47
2023-03-29T12:10:20.600Z,14.30
2023-03-29T12:12:00.716Z,13.77
2023-03-29T12:13:37.867Z,15.10
2023-03-29T12:15:20.177Z,12.47
2023-03-29T12:17:01.350Z,14.87
2023-03-29T12:18:40.970Z,16.43
2023-03-29T12:20:23.356Z,13.03
2023-03-29T12:21:59.042Z,14.23
2023-03-29T12:23:33.726Z,13.47
2023-03-29T12:25:10.363Z,12.07
2023-03-29T12:27:03.988Z,13.13
2023-03-29T12:29:05.643Z,14.83
2023-03-29T12:30:52.686Z,13.70
2023-03-29T12:32:45.951Z,14.33
2023-03-29T12:35:06.016Z,15.87
2023-03-29T12:37:16.493Z,14.53
2023-03-29T12:38:53.842Z,12.07
2023-03-29T12:40:47.995Z,15.17
2023-03-29T12:42:46.956Z,14.77
2023-03-29T12:44:38.718Z,16.03
2023-03-29T12:46:34.456Z,14.93
2023-03-29T12:48:09.032Z,16.93
2023-03-29T12:49:42.142Z,16.00
2023-03-29T12:51:17.170Z,15.37
2023-03-29T12:52:51.809Z,20.30
2023-03-29T12:54:29.384Z,18.47
2023-03-29T12:56:12.559Z,16.47
2023-03-29T12:58:01.226Z,16.43
2023-03-29T12:59:39.577Z,15.10
2023-03-29T13:01:26.609Z,15.20
2023-03-29T13:03:04.896Z,14.13
2023-03-29T13:04:49.335Z,16.23
2023-03-29T13:06:32.330Z,15.10
2023-03-29T13:08:23.184Z,15.03
2023-03-29T13:09:58.169Z,17.37
2023-03-29T13:11:36.088Z,15.63
2023-03-29T13:13:22.206Z,16.13
2023-03-29T13:14:57.277Z,18.27
2023-03-29T13:16:32.129Z,15.60
2023-03-29T13:18:16.704Z,14.80
2023-03-29T13:20:03.274Z,14.60
2023-03-29T13:21:48.652Z,15.13
2023-03-29T13:23:38.177Z,15.63
2023-03-29T13:25:25.461Z,16.27
2023-03-29T13:27:04.986Z,15.27
2023-03-29T13:28:50.636Z,15.20
2023-03-29T13:30:31.911Z,16.90
2023-03-29T13:32:18.519Z,17.20
2023-03-29T13:34:02.015Z,17.63
2023-03-29T13:35:46.239Z,16.50
2023-03-29T13:37:36.632Z,17.37
2023-03-29T13:39:20.357Z,18.00
2023-03-29T13:41:05.379Z,16.90
2023-03-29T13:42:42.214Z,17.53
2023-03-29T13:44:29.727Z,17.50
2023-03-29T13:46:25.674Z,17.43
2023-03-29T13:48:06.774Z,18.83
2023-03-29T13:49:43.624Z,18.20
2023-03-29T13:51:29.226Z,17.93
2023-03-29T13:53:07.529Z,16.70
2023-03-29T13:54:47.206Z,14.77
2023-03-29T13:56:26.252Z,15.67
2023-03-29T13:58:05.040Z,13.27
2023-03-29T14:00:00.019Z,16.17
2023-03-29T14:01:40.306Z,13.00
2023-03-29T14:03:15.503Z,14.13
2023-03-29T14:04:51.916Z,14.37
2023-03-29T14:06:28.831Z,15.67
2023-03-29T14:08:09.882Z,15.97
2023-03-29T14:09:47.042Z,14.80
2023-03-29T14:11:24.287Z,14.63
2023-03-29T14:13:04.137Z,15.23
2023-03-29T14:14:42.624Z,14.33
2023-03-29T14:16:29.011Z,14.33
2023-03-29T14:18:02.290Z,12.40
2023-03-29T14:19:38.012Z,14.67
2023-03-29T14:21:13.444Z,14.37
2023-03-29T14:22:47.291Z,11.27
2023-03-29T14:24:23.572Z,12.73
2023-03-29T14:26:07.151Z,11.67
2023-03-29T14:27:41.700Z,9.80
2023-03-29T14:29:15.040Z,10.73
2023-03-29T14:30:49.878Z,9.57
2023-03-29T14:32:30.893Z,11.40
2023-03-29T14:34:07.163Z,10.13
2023-03-29T14:35:40.611Z,10.83
2023-03-29T14:37:17.349Z,9.23
2023-03-29T14:38:53.346Z,10.07
2023-03-29T14:40:27.665Z,10.50
2023-03-29T14:42:02.828Z,10.93
2023-03-29T14:43:35.971Z,9.70
2023-03-29T14:45:13.488Z,9.67
2023-03-29T14:46:48.046Z,10.53
2023-03-29T14:48:21.663Z,9.57
2023-03-29T14:49:56.933Z,11.40
2023-03-29T14:51:31.276Z,9.87
2023-03-29T14:53:05.472Z,10.83
2023-03-29T14:54:39.369Z,9.53
2023-03-29T14:56:15.695Z,11.57
2023-03-29T14:57:51.010Z,9.50
2023-03-29T14:59:29.839Z,11.97
2023-03-29T15:01:07.030Z,10.33
2023-03-29T15:02:49.403Z,10.20
2023-03-29T15:04:22.653Z,9.53
2023-03-29T15:05:59.974Z,10.17
2023-03-29T15:07:34.867Z,9.43
2023-03-29T15:09:09.197Z,7.80
2023-03-29T15:10:44.771Z,8.73
2023-03-29T15:12:18.418Z,9.77
2023-03-29T15:14:01.638Z,9.60
2023-03-29T15:15:38.359Z,8.67
2023-03-29T15:17:39.427Z,9.77
2023-03-29T15:19:22.885Z,8.77
2023-03-29T15:20:56.243Z,9.53
2023-03-29T15:22:35.580Z,8.53
2023-03-29T15:24:22.099Z,7.53
2023-03-29T15:25:58.380Z,9.80
2023-03-29T15:27:42.735Z,9.87
2023-03-29T15:29:23.496Z,10.23
2023-03-29T15:32:38.788Z,8.83
2023-03-29T15:34:13.558Z,8.80
2023-03-29T15:35:51.294Z,10.03
2023-03-29T15:37:24.652Z,15.00
2023-03-29T15:38:58.021Z,15.60
2023-03-29T15:40:31.417Z,15.50
2023-03-29T15:42:04.609Z,17.27
2023-03-29T15:43:37.954Z,12.83
2023-03-29T15:45:16.823Z,14.73
2023-03-29T15:46:49.950Z,13.60
2023-03-29T15:48:25.662Z,14.47
2023-03-29T15:49:58.826Z,13.87
2023-03-29T15:51:32.018Z,13.07
2023-03-29T15:53:14.765Z,14.23
2023-03-29T15:54:48.877Z,12.80
2023-03-29T15:56:23.389Z,13.47
2023-03-29T15:57:59.159Z,14.93
2023-03-29T15:59:32.556Z,18.37
2023-03-29T16:01:15.969Z,16.43
2023-03-29T16:02:49.490Z,14.70
2023-03-29T16:04:23.695Z,15.70
2023-03-29T16:05:57.389Z,12.80
2023-03-29T16:07:30.983Z,14.83
2023-03-29T16:09:05.186Z,13.80
2023-03-29T16:10:38.305Z,13.37
2023-03-29T16:12:11.740Z,13.00
2023-03-29T16:13:44.842Z,12.97
2023-03-29T16:15:21.344Z,15.07
2023-03-29T16:16:58.877Z,13.07
2023-03-29T16:18:32.105Z,13.50
2023-03-29T16:20:07.246Z,12.63
2023-03-29T16:21:40.647Z,15.87
2023-03-29T16:23:13.761Z,13.50
2023-03-29T16:24:46.879Z,14.83
2023-03-29T16:26:20.076Z,15.97
2023-03-29T16:27:53.527Z,18.13
2023-03-29T16:29:26.707Z,17.67
2023-03-29T16:30:59.861Z,18.30
2023-03-29T16:32:34.406Z,17.70
2023-03-29T16:34:07.616Z,16.03
2023-03-29T16:35:41.423Z,16.53
2023-03-29T16:37:14.509Z,18.70
2023-03-29T16:38:47.697Z,16.23
2023-03-29T16:40:21.811Z,15.77
2023-03-29T16:41:55.014Z,19.17
2023-03-29T16:43:28.246Z,16.93
2023-03-29T16:45:02.217Z,16.90
2023-03-29T16:46:35.813Z,19.43
2023-03-29T16:48:13.763Z,16.97
2023-03-29T16:49:48.573Z,15.83
2023-03-29T16:51:21.770Z,17.23
2023-03-29T16:52:54.851Z,20.70
2023-03-29T16:54:29.664Z,16.93
2023-03-29T16:56:03.063Z,18.30
2023-03-29T16:57:36.852Z,19.53
2023-03-29T16:59:10.521Z,16.73
2023-03-29T17:00:46.408Z,19.57
2023-03-29T17:02:21.239Z,20.27
2023-03-29T17:03:55.923Z,20.23
2023-03-29T17:05:29.451Z,19.13
2023-03-29T17:07:03.701Z,18.50
2023-03-29T17:08:37.028Z,18.53
2023-03-29T17:10:11.587Z,18.63
2023-03-29T17:11:44.735Z,20.47
2023-03-29T17:13:17.888Z,17.30
2023-03-29T17:14:51.138Z,17.80
2023-03-29T17:16:24.553Z,18.17
2023-03-29T17:17:57.729Z,18.77
2023-03-29T17:19:32.173Z,19.00
2023-03-29T17:21:05.893Z,19.43
2023-03-29T17:22:39.093Z,19.47
2023-03-29T17:24:12.175Z,20.03
2023-03-29T17:25:45.612Z,20.47
2023-03-29T17:27:19.115Z,20.33
2023-03-29T17:28:52.204Z,22.50
2023-03-29T17:30:25.370Z,20.33
2023-03-29T17:31:58.493Z,22.50
2023-03-29T17:33:31.868Z,20.10
2023-03-29T17:35:06.976Z,19.27
2023-03-29T17:36:41.193Z,21.10
2023-03-29T17:38:14.291Z,19.63
2023-03-29T17:39:47.601Z,21.07
2023-03-29T17:41:21.232Z,18.93
2023-03-29T17:42:54.358Z,18.50
2023-03-29T17:44:27.394Z,19.73
2023-03-29T17:46:00.574Z,19.83
2023-03-29T17:47:33.804Z,20.37
2023-03-29T17:49:07.273Z,20.57
2023-03-29T17:50:41.762Z,19.87
2023-03-29T17:52:14.872Z,21.33
2023-03-29T17:53:48.194Z,17.83
2023-03-29T17:55:21.324Z,18.33
2023-03-29T17:56:54.464Z,18.67
2023-03-29T17:58:27.599Z,20.27
2023-03-29T18:00:00.660Z,20.67
2023-03-29T18:01:34.218Z,18.70
2023-03-29T18:03:08.597Z,19.17
2023-03-29T18:04:41.711Z,20.10
2023-03-29T18:06:19.403Z,19.63
2023-03-29T18:07:52.448Z,17.33
2023-03-29T18:09:28.091Z,19.60
2023-03-29T18:11:09.782Z,19.97
2023-03-29T18:12:42.869Z,19.63
2023-03-29T18:14:16.134Z,17.17
2023-03-29T18:15:56.112Z,17.63
2023-03-29T18:17:29.245Z,17.67
2023-03-29T18:19:02.340Z,17.17
2023-03-29T18:20:35.462Z,18.33
2023-03-29T18:22:09.896Z,17.27
2023-03-29T18:23:47.018Z,18.20
2023-03-29T18:25:20.106Z,17.90
2023-03-29T18:26:53.245Z,17.40
2023-03-29T18:28:27.038Z,15.60
2023-03-29T18:30:00.238Z,15.53
2023-03-29T18:31:33.436Z,15.07
2023-03-29T18:33:06.625Z,16.87
2023-03-29T18:34:40.078Z,18.27
2023-03-29T18:36:13.809Z,17.07
2023-03-29T18:37:48.480Z,17.10
2023-03-29T18:39:21.550Z,17.03
2023-03-29T18:40:54.614Z,16.83
2023-03-29T18:42:27.714Z,14.07
2023-03-29T18:44:01.101Z,17.43
2023-03-29T18:45:34.321Z,16.43
2023-03-29T18:47:07.408Z,15.23
2023-03-29T18:48:41.107Z,17.10
2023-03-29T18:50:14.293Z,14.63
2023-03-29T18:51:47.666Z,16.57
2023-03-29T18:53:22.187Z,16.07
2023-03-29T18:54:55.313Z,15.73
2023-03-29T18:56:28.838Z,15.30
2023-03-29T18:58:01.881Z,14.50
2023-03-29T18:59:36.019Z,16.37
2023-03-29T19:01:10.767Z,16.80
2023-03-29T19:02:44.003Z,18.00
2023-03-29T19:04:17.125Z,18.87
2023-03-29T19:05:55.253Z,17.83
2023-03-29T19:07:28.321Z,17.07
2023-03-29T19:09:05.169Z,16.33
2023-03-29T19:10:38.940Z,17.37
2023-03-29T19:12:12.016Z,18.17
2023-03-29T19:13:46.365Z,15.37
2023-03-29T19:15:19.854Z,17.87
2023-03-29T19:16:53.757Z,15.93
2023-03-29T19:18:27.488Z,16.93
2023-03-29T19:20:00.597Z,14.43
2023-03-29T19:21:33.833Z,15.33
2023-03-29T19:23:06.905Z,15.67
2023-03-29T19:24:41.525Z,17.03
2023-03-29T19:26:15.360Z,15.63
2023-03-29T19:27:48.645Z,15.10
2023-03-29T19:29:21.805Z,17.93
2023-03-29T19:30:55.420Z,15.70
2023-03-29T19:32:28.558Z,15.23
2023-03-29T19:34:01.790Z,17.93
2023-03-29T19:35:34.994Z,18.20
2023-03-29T19:37:08.089Z,16.30
2023-03-29T19:38:41.395Z,16.67
2023-03-29T19:40:16.065Z,15.47
2023-03-29T19:41:49.502Z,14.57
2023-03-29T19:43:22.582Z,14.67
2023-03-29T19:44:55.701Z,16.00
2023-03-29T19:46:29.086Z,16.60
2023-03-29T19:48:03.296Z,14.57
2023-03-29T19:49:38.257Z,17.73
2023-03-29T19:51:11.988Z,18.00
2023-03-29T19:52:45.053Z,16.07
2023-03-29T19:54:18.158Z,13.20
2023-03-29T19:55:53.205Z,14.23
2023-03-29T19:57:28.296Z,16.10
2023-03-29T19:59:01.512Z,16.80
2023-03-29T20:00:34.922Z,15.70
2023-03-29T20:02:08.453Z,14.87
2023-03-29T20:03:43.545Z,16.87
2023-03-29T20:05:17.226Z,14.90
2023-03-29T20:06:50.590Z,13.93
2023-03-29T20:08:24.739Z,17.03
2023-03-29T20:09:58.000Z,17.47
2023-03-29T20:11:32.439Z,13.67
2023-03-29T20:13:06.564Z,14.10
2023-03-29T20:14:40.310Z,15.63
2023-03-29T20:16:15.946Z,15.23
2023-03-29T20:17:51.396Z,14.50
2023-03-29T20:19:25.368Z,15.33
2023-03-29T20:20:58.451Z,15.67
2023-03-29T20:22:32.760Z,18.90
2023-03-29T20:24:08.539Z,15.23
2023-03-29T20:25:41.740Z,13.73
2023-03-29T20:27:16.685Z,14.43
2023-03-29T20:28:50.681Z,14.17
2023-03-29T20:30:24.060Z,15.93
2023-03-29T20:31:58.231Z,16.00
2023-03-29T20:33:31.551Z,15.77
2023-03-29T20:35:04.877Z,15.93
2023-03-29T20:36:38.673Z,17.60
2023-03-29T20:38:12.513Z,15.97
2023-03-29T20:39:45.612Z,16.17
2023-03-29T20:41:19.591Z,16.80
2023-03-29T20:42:54.245Z,15.53
2023-03-29T20:44:28.391Z,18.80
2023-03-29T20:46:01.752Z,15.00
2023-03-29T20:47:42.182Z,15.20
2023-03-29T20:49:16.111Z,16.37
2023-03-29T20:50:50.053Z,16.20
2023-03-29T20:52:24.544Z,15.33
2023-03-29T20:54:02.811Z,15.97
2023-03-29T20:55:39.064Z,17.43
2023-03-29T20:57:14.300Z,15.40
2023-03-29T20:58:48.786Z,13.90
2023-03-29T21:00:22.429Z,16.83
2023-03-29T21:01:55.596Z,17.10
2023-03-29T21:03:28.746Z,16.40
2023-03-29T21:05:02.329Z,15.13
2023-03-29T21:06:35.431Z,16.20
2023-03-29T21:08:08.478Z,16.77
2023-03-29T21:09:42.228Z,16.13
2023-03-29T21:11:16.307Z,17.13
2023-03-29T21:12:49.875Z,14.27
2023-03-29T21:14:26.664Z,17.10
2023-03-29T21:16:00.860Z,13.70
2023-03-29T21:17:34.027Z,15.93
2023-03-29T21:19:07.124Z,16.70